Matachewan, Canada
Current Conditions -  °F | °C
As of 11:00 PM on Saturday 22 Nov 2014 (Local Time) from CYXR Reporting Station
Haze Haze  
Wind Chill: 29°   Ceiling: 5000
Heat Index: 34°   Visibility: 6mi
Dew Point: 32°   Wind: 6mph
Humidity: 93%   Direction: 200°SSW
Pressure: 29.75"   Gusts: NA
Location:  48°N, 80.65°W
Report Text: CYXR 230400Z AUTO 20005KT 6SM BR OVC050 01/00 A2975 RMK SLP087
Loading
Personal Weather Stations






























Interactive Weather Map New forecast layout! Learn more

10-Day Weather Forecast

Advertisements
Track Severe Weather on mobile